X  Chiuso Dati meteorologici dell'aviazione (METAR)        LGTS Thessaloniki Macedonia International
Temperatura
13°C Temperatura
11°C Punto di rugiada
88% Umidità



Vento
8 MPH
13 KM/O
4 M/S
7 KTS



140°
SE
Condizioni attuali

Mostly Clear Prevalentemente limpido
Pressione 1013 (hPa) - 29.91 (inHg)
Visibilità 6 (miglio) - 10 (km)
Aeroporto
Codice-Aeroporto LGTS

Posizione: Thessaloniki Macedonia International
Distanza: 85 (mi)

Metar:
METAR LGTS 031820Z 14007KT 9999 FEW020 13/11 Q1013 NOSIG

Ore: 03-03-2024 20:20 EET